createdAt,value
2017-04-07T00:00:25.977Z,1015.83
2017-04-07T00:01:06.849Z,1015.81
2017-04-07T00:01:47.733Z,1015.87
2017-04-07T00:02:28.616Z,1015.85
2017-04-07T00:03:09.489Z,1015.82
2017-04-07T00:03:50.367Z,1015.84
2017-04-07T00:04:31.258Z,1015.84
2017-04-07T00:05:12.135Z,1015.83
2017-04-07T00:05:53.016Z,1015.82
2017-04-07T00:06:33.888Z,1015.78
2017-04-07T00:07:14.773Z,1015.88
2017-04-07T00:07:55.658Z,1015.74
2017-04-07T00:08:36.536Z,1015.82
2017-04-07T00:09:17.435Z,1015.87
2017-04-07T00:09:58.310Z,1015.78
2017-04-07T00:10:39.191Z,1015.76
2017-04-07T00:11:20.068Z,1015.81
2017-04-07T00:12:00.941Z,1015.74
2017-04-07T00:12:41.814Z,1015.79
2017-04-07T00:13:22.695Z,1015.87
2017-04-07T00:14:03.571Z,1015.76
2017-04-07T00:14:44.446Z,1015.8
2017-04-07T00:15:25.324Z,1015.77
2017-04-07T00:16:06.202Z,1015.74
2017-04-07T00:16:47.083Z,1015.8
2017-04-07T00:17:27.968Z,1015.75
2017-04-07T00:18:08.848Z,1015.78
2017-04-07T00:18:49.723Z,1015.71
2017-04-07T00:19:30.596Z,1015.76
2017-04-07T00:20:11.509Z,1015.75
2017-04-07T00:20:52.389Z,1015.73
2017-04-07T00:21:33.261Z,1015.74
2017-04-07T00:22:14.152Z,1015.7
2017-04-07T00:22:55.022Z,1015.71
2017-04-07T00:23:35.897Z,1015.67
2017-04-07T00:24:16.779Z,1015.69
2017-04-07T00:24:57.652Z,1015.66
2017-04-07T00:25:38.538Z,1015.68
2017-04-07T00:26:19.451Z,1015.66
2017-04-07T00:27:00.331Z,1015.69
2017-04-07T00:27:41.197Z,1015.63
2017-04-07T00:28:22.077Z,1015.63
2017-04-07T00:29:02.961Z,1015.64
2017-04-07T00:29:43.842Z,1015.63
2017-04-07T00:30:24.716Z,1015.61
2017-04-07T00:31:05.597Z,1015.62
2017-04-07T00:31:46.472Z,1015.6
2017-04-07T00:32:27.358Z,1015.57
2017-04-07T00:33:08.238Z,1015.58
2017-04-07T00:33:49.112Z,1015.57
2017-04-07T00:34:29.990Z,1015.58
2017-04-07T00:35:10.879Z,1015.57
2017-04-07T00:35:51.761Z,1015.57
2017-04-07T00:36:32.638Z,1015.62
2017-04-07T00:37:13.519Z,1015.53
2017-04-07T00:37:54.397Z,1015.54
2017-04-07T00:38:35.282Z,1015.47
2017-04-07T00:39:16.172Z,1015.51
2017-04-07T00:39:57.042Z,1015.48
2017-04-07T00:40:37.921Z,1015.44
2017-04-07T00:41:18.807Z,1015.47
2017-04-07T00:41:59.686Z,1015.52
2017-04-07T00:42:40.570Z,1015.45
2017-04-07T00:43:21.446Z,1015.43
2017-04-07T00:44:02.317Z,1015.5
2017-04-07T00:44:43.199Z,1015.41
2017-04-07T00:45:24.079Z,1015.39
2017-04-07T00:46:04.962Z,1015.38
2017-04-07T00:46:45.842Z,1015.33
2017-04-07T00:47:26.728Z,1015.34
2017-04-07T00:48:07.612Z,1015.36
2017-04-07T00:48:48.490Z,1015.31
2017-04-07T00:49:29.370Z,1015.37
2017-04-07T00:50:10.246Z,1015.29
2017-04-07T00:50:51.128Z,1015.26
2017-04-07T00:51:32.009Z,1015.3
2017-04-07T00:52:12.887Z,1015.32
2017-04-07T00:52:53.768Z,1015.31
2017-04-07T00:53:34.671Z,1015.33
2017-04-07T00:54:15.537Z,1015.29
2017-04-07T00:54:56.421Z,1015.28
2017-04-07T00:55:37.296Z,1015.25
2017-04-07T00:56:18.175Z,1015.26
2017-04-07T00:56:59.053Z,1015.28
2017-04-07T00:57:39.935Z,1015.27
2017-04-07T00:58:20.815Z,1015.23
2017-04-07T00:59:01.691Z,1015.17
2017-04-07T00:59:42.590Z,1015.19
2017-04-07T01:00:23.476Z,1015.17
2017-04-07T01:01:04.352Z,1015.22
2017-04-07T01:01:45.233Z,1015.14
2017-04-07T01:02:26.121Z,1015.15
2017-04-07T01:03:06.993Z,1015.21
2017-04-07T01:03:47.878Z,1015.14
2017-04-07T01:04:28.759Z,1015.2
2017-04-07T01:05:09.643Z,1015.16
2017-04-07T01:05:50.531Z,1015.16
2017-04-07T01:06:31.410Z,1015.09
2017-04-07T01:07:12.294Z,1015.08
2017-04-07T01:07:53.181Z,1015.1
2017-04-07T01:08:34.067Z,1015.12
2017-04-07T01:09:14.940Z,1015.14
2017-04-07T01:09:55.818Z,1015.05
2017-04-07T01:10:36.695Z,1015.09
2017-04-07T01:11:17.585Z,1015.05
2017-04-07T01:11:58.467Z,1015.01
2017-04-07T01:12:39.343Z,1015.01
2017-04-07T01:13:20.225Z,1015.05
2017-04-07T01:14:01.114Z,1015.01
2017-04-07T01:14:42.002Z,1014.98
2017-04-07T01:15:22.878Z,1014.92
2017-04-07T01:16:03.759Z,1014.94
2017-04-07T01:16:44.637Z,1014.96
2017-04-07T01:17:25.516Z,1014.93
2017-04-07T01:18:06.428Z,1014.87
2017-04-07T01:18:47.276Z,1014.9
2017-04-07T01:19:28.159Z,1014.93
2017-04-07T01:20:09.039Z,1014.86
2017-04-07T01:20:49.927Z,1014.85
2017-04-07T01:21:30.801Z,1014.97
2017-04-07T01:22:11.713Z,1014.94
2017-04-07T01:22:52.607Z,1014.86
2017-04-07T01:23:33.476Z,1014.82
2017-04-07T01:24:14.359Z,1014.86
2017-04-07T01:24:55.249Z,1014.83
2017-04-07T01:25:36.135Z,1014.79
2017-04-07T01:26:17.010Z,1014.84
2017-04-07T01:26:57.883Z,1014.74
2017-04-07T01:27:38.772Z,1014.73
2017-04-07T01:28:19.650Z,1014.75
2017-04-07T01:29:00.529Z,1014.72
2017-04-07T01:29:41.398Z,1014.68
2017-04-07T01:30:22.284Z,1014.73
2017-04-07T01:31:03.167Z,1014.75
2017-04-07T01:31:44.044Z,1014.68
2017-04-07T01:32:24.920Z,1014.65
2017-04-07T01:33:05.800Z,1014.7
2017-04-07T01:33:46.680Z,1014.79
2017-04-07T01:34:27.561Z,1014.65
2017-04-07T01:35:08.440Z,1014.68
2017-04-07T01:35:49.319Z,1014.55
2017-04-07T01:36:30.207Z,1014.64
2017-04-07T01:37:11.091Z,1014.58
2017-04-07T01:37:51.973Z,1014.7
2017-04-07T01:38:32.855Z,1014.61
2017-04-07T01:39:13.736Z,1014.6
2017-04-07T01:39:54.618Z,1014.57
2017-04-07T01:40:35.502Z,1014.61
2017-04-07T01:41:16.377Z,1014.6
2017-04-07T01:41:57.274Z,1014.7
2017-04-07T01:42:38.154Z,1014.56
2017-04-07T01:43:19.032Z,1014.53
2017-04-07T01:43:59.907Z,1014.54
2017-04-07T01:44:40.784Z,1014.53
2017-04-07T01:45:21.655Z,1014.62
2017-04-07T01:46:02.551Z,1014.51
2017-04-07T01:46:43.429Z,1014.54
2017-04-07T01:47:24.309Z,1014.6
2017-04-07T01:48:05.196Z,1014.54
2017-04-07T01:48:46.076Z,1014.54
2017-04-07T01:49:26.957Z,1014.55
2017-04-07T01:50:07.840Z,1014.51
2017-04-07T01:50:48.720Z,1014.56
2017-04-07T01:51:29.606Z,1014.51
2017-04-07T01:52:10.489Z,1014.49
2017-04-07T01:52:51.371Z,1014.53
2017-04-07T01:53:32.252Z,1014.5
2017-04-07T01:54:13.132Z,1014.55
2017-04-07T01:54:54.023Z,1014.46
2017-04-07T01:55:34.905Z,1014.52
2017-04-07T01:56:15.780Z,1014.53
2017-04-07T01:56:56.654Z,1014.49
2017-04-07T01:57:37.541Z,1014.5
2017-04-07T01:58:18.423Z,1014.39
2017-04-07T01:58:59.324Z,1014.44
2017-04-07T01:59:40.178Z,1014.45
2017-04-07T02:00:21.074Z,1014.35
2017-04-07T02:01:01.952Z,1014.46
2017-04-07T02:01:42.839Z,1014.39
2017-04-07T02:02:23.712Z,1014.43
2017-04-07T02:03:04.609Z,1014.41
2017-04-07T02:03:45.485Z,1014.42
2017-04-07T02:04:26.366Z,1014.41
2017-04-07T02:05:07.244Z,1014.46
2017-04-07T02:05:48.129Z,1014.37
2017-04-07T02:06:29.006Z,1014.4
2017-04-07T02:07:09.889Z,1014.42
2017-04-07T02:07:50.761Z,1014.45
2017-04-07T02:08:31.633Z,1014.42
2017-04-07T02:09:12.510Z,1014.33
2017-04-07T02:09:53.392Z,1014.37
2017-04-07T02:10:34.274Z,1014.46
2017-04-07T02:11:15.152Z,1014.39
2017-04-07T02:11:56.034Z,1014.41
2017-04-07T02:12:36.918Z,1014.38
2017-04-07T02:13:17.798Z,1014.36
2017-04-07T02:13:58.675Z,1014.33
2017-04-07T02:14:39.554Z,1014.23
2017-04-07T02:15:20.433Z,1014.36
2017-04-07T02:16:01.317Z,1014.49
2017-04-07T02:16:42.205Z,1014.41
2017-04-07T02:17:23.075Z,1014.25
2017-04-07T02:18:03.958Z,1014.27
2017-04-07T02:18:44.849Z,1014.24
2017-04-07T02:19:25.733Z,1014.24
2017-04-07T02:20:06.607Z,1014.22
2017-04-07T02:20:47.492Z,1014.28
2017-04-07T02:21:28.374Z,1014.26
2017-04-07T02:22:09.254Z,1014.2
2017-04-07T02:22:50.145Z,1014.16
2017-04-07T02:23:31.030Z,1014.16
2017-04-07T02:24:11.910Z,1014.18
2017-04-07T02:24:52.789Z,1014.08
2017-04-07T02:25:33.675Z,1014.13
2017-04-07T02:26:14.551Z,1014.2
2017-04-07T02:26:55.435Z,1014.22
2017-04-07T02:27:36.320Z,1014.23
2017-04-07T02:28:17.198Z,1014.15
2017-04-07T02:28:58.070Z,1014.23
2017-04-07T02:29:38.953Z,1014.1
2017-04-07T02:30:19.834Z,1014.05
2017-04-07T02:31:00.715Z,1014.14
2017-04-07T02:31:41.596Z,1014.1
2017-04-07T02:32:22.483Z,1014.11
2017-04-07T02:33:03.365Z,1014.11
2017-04-07T02:33:44.246Z,1014.19
2017-04-07T02:34:25.128Z,1014.11
2017-04-07T02:35:06.010Z,1014.13
2017-04-07T02:35:46.894Z,1014.11
2017-04-07T02:36:27.783Z,1014.17
2017-04-07T02:37:08.670Z,1014.18
2017-04-07T02:37:49.567Z,1014.18
2017-04-07T02:38:30.438Z,1014.25
2017-04-07T02:39:11.320Z,1014.21
2017-04-07T02:39:52.198Z,1014.23
2017-04-07T02:40:33.071Z,1014.25
2017-04-07T02:41:13.942Z,1014.18
2017-04-07T02:41:54.828Z,1014.23
2017-04-07T02:42:35.707Z,1014.19
2017-04-07T02:43:16.578Z,1014.19
2017-04-07T02:43:57.456Z,1014.24
2017-04-07T02:44:38.339Z,1014.18
2017-04-07T02:45:19.222Z,1014.27
2017-04-07T02:46:00.101Z,1014.23
2017-04-07T02:46:40.978Z,1014.16
2017-04-07T02:47:21.863Z,1014.26
2017-04-07T02:48:02.738Z,1014.25
2017-04-07T02:48:43.615Z,1014.21
2017-04-07T02:49:24.493Z,1014.22
2017-04-07T02:50:05.371Z,1014.25
2017-04-07T02:50:46.250Z,1014.21
2017-04-07T02:51:27.139Z,1014.18
2017-04-07T02:52:08.023Z,1014.14
2017-04-07T02:52:48.906Z,1014.21
2017-04-07T02:53:29.791Z,1014.19
2017-04-07T02:54:10.674Z,1014.18
2017-04-07T02:54:51.555Z,1014.07
2017-04-07T02:55:32.437Z,1014.13
2017-04-07T02:56:13.311Z,1014.08
2017-04-07T02:56:54.191Z,1014.09
2017-04-07T02:57:35.070Z,1014.1
2017-04-07T02:58:15.957Z,1014.09
2017-04-07T02:58:56.835Z,1014.13
2017-04-07T02:59:37.715Z,1014.11
2017-04-07T03:00:18.601Z,1014.11
2017-04-07T03:00:59.484Z,1014.02
2017-04-07T03:01:40.363Z,1014.03
2017-04-07T03:02:21.242Z,1014.09
2017-04-07T03:03:02.129Z,1013.97
2017-04-07T03:03:43.014Z,1014.03
2017-04-07T03:04:23.886Z,1014.04
2017-04-07T03:05:04.759Z,1013.98
2017-04-07T03:05:45.633Z,1013.98
2017-04-07T03:06:26.518Z,1013.97
2017-04-07T03:07:07.434Z,1013.95
2017-04-07T03:07:48.316Z,1013.96
2017-04-07T03:08:29.195Z,1013.96
2017-04-07T03:09:10.078Z,1014.01
2017-04-07T03:09:50.953Z,1014.04
2017-04-07T03:10:31.823Z,1013.93
2017-04-07T03:11:12.703Z,1013.99
2017-04-07T03:11:53.587Z,1014.02
2017-04-07T03:12:34.467Z,1013.97
2017-04-07T03:13:15.349Z,1013.97
2017-04-07T03:13:56.226Z,1013.96
2017-04-07T03:14:37.104Z,1013.89
2017-04-07T03:15:17.985Z,1013.89
2017-04-07T03:15:58.874Z,1013.87
2017-04-07T03:16:39.746Z,1013.87
2017-04-07T03:17:20.625Z,1013.8
2017-04-07T03:18:01.510Z,1013.84
2017-04-07T03:18:42.391Z,1013.76
2017-04-07T03:19:23.272Z,1013.8
2017-04-07T03:20:04.137Z,1013.81
2017-04-07T03:20:45.024Z,1013.79
2017-04-07T03:21:25.906Z,1013.78
2017-04-07T03:22:06.787Z,1013.79
2017-04-07T03:22:47.657Z,1013.8
2017-04-07T03:23:28.537Z,1013.76
2017-04-07T03:24:09.416Z,1013.79
2017-04-07T03:24:50.306Z,1013.73
2017-04-07T03:25:31.196Z,1013.69
2017-04-07T03:26:12.063Z,1013.65
2017-04-07T03:26:52.936Z,1013.74
2017-04-07T03:27:33.818Z,1013.69
2017-04-07T03:28:14.700Z,1013.73
2017-04-07T03:28:55.582Z,1013.71
2017-04-07T03:29:36.452Z,1013.65
2017-04-07T03:30:17.328Z,1013.72
2017-04-07T03:30:58.223Z,1013.74
2017-04-07T03:31:39.219Z,1013.69
2017-04-07T03:32:20.472Z,1013.83
2017-04-07T03:33:01.431Z,1013.64
2017-04-07T03:33:42.314Z,1013.76
2017-04-07T03:34:23.194Z,1013.69
2017-04-07T03:35:04.122Z,1013.64
2017-04-07T03:35:44.989Z,1013.68
2017-04-07T03:36:25.868Z,1013.63
2017-04-07T03:37:06.764Z,1013.62
2017-04-07T03:37:47.643Z,1013.62
2017-04-07T03:38:28.551Z,1013.64
2017-04-07T03:39:09.404Z,1013.61
2017-04-07T03:39:50.300Z,1013.59
2017-04-07T03:40:31.203Z,1013.55
2017-04-07T03:41:12.065Z,1013.61
2017-04-07T03:41:52.943Z,1013.57
2017-04-07T03:42:33.865Z,1013.51
2017-04-07T03:43:14.735Z,1013.48
2017-04-07T03:43:55.618Z,1013.57
2017-04-07T03:44:36.506Z,1013.66
2017-04-07T03:45:17.380Z,1013.49
2017-04-07T03:45:58.259Z,1013.58
2017-04-07T03:46:39.144Z,1013.42
2017-04-07T03:47:20.025Z,1013.46
2017-04-07T03:48:00.912Z,1013.47
2017-04-07T03:48:41.788Z,1013.46
2017-04-07T03:49:22.663Z,1013.45
2017-04-07T03:50:03.541Z,1013.43
2017-04-07T03:50:44.423Z,1013.43
2017-04-07T03:51:25.303Z,1013.35
2017-04-07T03:52:06.181Z,1013.33
2017-04-07T03:52:47.054Z,1013.35
2017-04-07T03:53:27.932Z,1013.32
2017-04-07T03:54:08.818Z,1013.34
2017-04-07T03:54:49.697Z,1013.32
2017-04-07T03:55:30.578Z,1013.43
2017-04-07T03:56:11.463Z,1013.34
2017-04-07T03:56:52.354Z,1013.39
2017-04-07T03:57:33.230Z,1013.38
2017-04-07T03:58:14.108Z,1013.34
2017-04-07T03:58:54.985Z,1013.4
2017-04-07T03:59:35.860Z,1013.43
2017-04-07T04:00:16.743Z,1013.37
2017-04-07T04:00:57.622Z,1013.37
2017-04-07T04:01:38.504Z,1013.4
2017-04-07T04:02:19.383Z,1013.34
2017-04-07T04:03:00.278Z,1013.35
2017-04-07T04:03:41.161Z,1013.36
2017-04-07T04:04:22.041Z,1013.4
2017-04-07T04:05:02.922Z,1013.36
2017-04-07T04:05:43.809Z,1013.38
2017-04-07T04:06:24.690Z,1013.43
2017-04-07T04:07:05.569Z,1013.37
2017-04-07T04:07:46.450Z,1013.31
2017-04-07T04:08:27.342Z,1013.34
2017-04-07T04:09:08.223Z,1013.39
2017-04-07T04:09:49.098Z,1013.42
2017-04-07T04:10:29.978Z,1013.3
2017-04-07T04:11:10.866Z,1013.35
2017-04-07T04:11:51.746Z,1013.4
2017-04-07T04:12:32.627Z,1013.41
2017-04-07T04:13:13.504Z,1013.41
2017-04-07T04:13:54.382Z,1013.38
2017-04-07T04:14:35.259Z,1013.41
2017-04-07T04:15:16.131Z,1013.39
2017-04-07T04:15:57.005Z,1013.38
2017-04-07T04:16:37.882Z,1013.38
2017-04-07T04:17:18.760Z,1013.33
2017-04-07T04:17:59.628Z,1013.29
2017-04-07T04:18:40.525Z,1013.31
2017-04-07T04:19:21.416Z,1013.3
2017-04-07T04:20:02.276Z,1013.32
2017-04-07T04:20:43.152Z,1013.32
2017-04-07T04:21:24.026Z,1013.35
2017-04-07T04:22:04.912Z,1013.37
2017-04-07T04:22:45.792Z,1013.33
2017-04-07T04:23:26.662Z,1013.27
2017-04-07T04:24:07.541Z,1013.32
2017-04-07T04:24:48.420Z,1013.28
2017-04-07T04:25:29.312Z,1013.26
2017-04-07T04:26:10.192Z,1013.25
2017-04-07T04:26:51.061Z,1013.29
2017-04-07T04:27:31.936Z,1013.31
2017-04-07T04:28:12.823Z,1013.27
2017-04-07T04:28:53.704Z,1013.26
2017-04-07T04:29:34.584Z,1013.22
2017-04-07T04:30:15.457Z,1013.3
2017-04-07T04:30:56.336Z,1013.13
2017-04-07T04:31:37.225Z,1013.26
2017-04-07T04:32:18.102Z,1013.31
2017-04-07T04:32:58.972Z,1013.27
2017-04-07T04:33:39.846Z,1013.35
2017-04-07T04:34:20.727Z,1013.37
2017-04-07T04:35:01.609Z,1013.34
2017-04-07T04:35:42.522Z,1013.36
2017-04-07T04:36:23.399Z,1013.3
2017-04-07T04:37:04.281Z,1013.34
2017-04-07T04:37:45.162Z,1013.26
2017-04-07T04:38:26.042Z,1013.35
2017-04-07T04:39:06.919Z,1013.39
2017-04-07T04:39:47.797Z,1013.27
2017-04-07T04:40:28.683Z,1013.41
2017-04-07T04:41:09.561Z,1013.36
2017-04-07T04:41:50.435Z,1013.28
2017-04-07T04:42:31.313Z,1013.34
2017-04-07T04:43:12.219Z,1013.27
2017-04-07T04:43:53.077Z,1013.35
2017-04-07T04:44:33.957Z,1013.32
2017-04-07T04:45:14.847Z,1013.44
2017-04-07T04:45:55.719Z,1013.42
2017-04-07T04:46:36.605Z,1013.23
2017-04-07T04:47:17.481Z,1013.32
2017-04-07T04:47:58.360Z,1013.37
2017-04-07T04:48:39.242Z,1013.4
2017-04-07T04:49:20.128Z,1013.35
2017-04-07T04:50:01.012Z,1013.37
2017-04-07T04:50:41.889Z,1013.41
2017-04-07T04:51:22.772Z,1013.4
2017-04-07T04:52:03.648Z,1013.32
2017-04-07T04:52:44.534Z,1013.37
2017-04-07T04:53:25.415Z,1013.41
2017-04-07T04:54:06.290Z,1013.41
2017-04-07T04:54:47.174Z,1013.38
2017-04-07T04:55:28.060Z,1013.33
2017-04-07T04:56:08.934Z,1013.35
2017-04-07T04:56:49.813Z,1013.35
2017-04-07T04:57:30.687Z,1013.33
2017-04-07T04:58:11.573Z,1013.37
2017-04-07T04:58:52.452Z,1013.35
2017-04-07T04:59:33.332Z,1013.4
2017-04-07T05:00:14.209Z,1013.34
2017-04-07T05:00:55.078Z,1013.36
2017-04-07T05:01:35.959Z,1013.3
2017-04-07T05:02:16.847Z,1013.37
2017-04-07T05:02:57.722Z,1013.18
2017-04-07T05:03:38.597Z,1013.35
2017-04-07T05:04:19.481Z,1013.3
2017-04-07T05:05:00.385Z,1013.33
2017-04-07T05:05:41.264Z,1013.27
2017-04-07T05:06:22.142Z,1013.34
2017-04-07T05:07:03.039Z,1013.3
2017-04-07T05:07:43.910Z,1013.27
2017-04-07T05:08:24.789Z,1013.24
2017-04-07T05:09:05.666Z,1013.29
2017-04-07T05:09:46.550Z,1013.24
2017-04-07T05:10:27.427Z,1013.25
2017-04-07T05:11:08.306Z,1013.26
2017-04-07T05:11:49.187Z,1013.2
2017-04-07T05:12:30.069Z,1013.17
2017-04-07T05:13:10.950Z,1013.27
2017-04-07T05:13:51.836Z,1013.06
2017-04-07T05:14:32.720Z,1013.19
2017-04-07T05:15:13.601Z,1013.17
2017-04-07T05:15:54.481Z,1013.25
2017-04-07T05:16:35.388Z,1013.24
2017-04-07T05:17:16.245Z,1013.22
2017-04-07T05:17:57.121Z,1013.32
2017-04-07T05:18:37.993Z,1013.21
2017-04-07T05:19:18.877Z,1013.3
2017-04-07T05:19:59.756Z,1013.28
2017-04-07T05:20:40.635Z,1013.23
2017-04-07T05:21:21.516Z,1013.3
2017-04-07T05:22:02.394Z,1013.27
2017-04-07T05:22:43.275Z,1013.23
2017-04-07T05:23:24.156Z,1013.23
2017-04-07T05:24:05.038Z,1013.31
2017-04-07T05:24:45.916Z,1013.18
2017-04-07T05:25:26.799Z,1013.21
2017-04-07T05:26:07.681Z,1013.22
2017-04-07T05:26:48.563Z,1013.24
2017-04-07T05:27:29.441Z,1013.29
2017-04-07T05:28:10.316Z,1013.34
2017-04-07T05:28:51.190Z,1013.3
2017-04-07T05:29:32.071Z,1013.34
2017-04-07T05:30:12.949Z,1013.31
2017-04-07T05:30:53.830Z,1013.34
2017-04-07T05:31:34.699Z,1013.33
2017-04-07T05:32:15.580Z,1013.32
2017-04-07T05:32:56.461Z,1013.32
2017-04-07T05:33:37.344Z,1013.36
2017-04-07T05:34:18.226Z,1013.33
2017-04-07T05:34:59.105Z,1013.3
2017-04-07T05:35:39.988Z,1013.42
2017-04-07T05:36:20.868Z,1013.36
2017-04-07T05:37:01.750Z,1013.33
2017-04-07T05:37:42.614Z,1013.43
2017-04-07T05:38:23.493Z,1013.38
2017-04-07T05:39:04.371Z,1013.37
2017-04-07T05:39:45.253Z,1013.34
2017-04-07T05:40:26.132Z,1013.35
2017-04-07T05:41:07.011Z,1013.35
2017-04-07T05:41:47.895Z,1013.32
2017-04-07T05:42:28.774Z,1013.31
2017-04-07T05:43:09.656Z,1013.37
2017-04-07T05:43:50.533Z,1013.42
2017-04-07T05:44:31.410Z,1013.34
2017-04-07T05:45:12.295Z,1013.43
2017-04-07T05:45:53.180Z,1013.41
2017-04-07T05:46:34.064Z,1013.39
2017-04-07T05:47:14.940Z,1013.39
2017-04-07T05:47:55.823Z,1013.39
2017-04-07T05:48:36.728Z,1013.35
2017-04-07T05:49:17.611Z,1013.42
2017-04-07T05:49:58.488Z,1013.4
2017-04-07T05:50:39.372Z,1013.4
2017-04-07T05:51:20.250Z,1013.33
2017-04-07T05:52:01.126Z,1013.44
2017-04-07T05:52:42.012Z,1013.37
2017-04-07T05:53:22.888Z,1013.41
2017-04-07T05:54:03.768Z,1013.39
2017-04-07T05:54:44.650Z,1013.44
2017-04-07T05:55:25.529Z,1013.33
2017-04-07T05:56:06.403Z,1013.41
2017-04-07T05:56:47.280Z,1013.4
2017-04-07T05:57:28.164Z,1013.41
2017-04-07T05:58:09.041Z,1013.39
2017-04-07T05:58:49.915Z,1013.42
2017-04-07T05:59:30.795Z,1013.41
2017-04-07T06:00:11.670Z,1013.45
2017-04-07T06:00:52.560Z,1013.45
2017-04-07T06:01:33.433Z,1013.57
2017-04-07T06:02:14.318Z,1013.48
2017-04-07T06:02:55.204Z,1013.38
2017-04-07T06:03:36.151Z,1013.46
2017-04-07T06:04:17.044Z,1013.49
2017-04-07T06:04:57.926Z,1013.45
2017-04-07T06:05:38.799Z,1013.45
2017-04-07T06:06:19.680Z,1013.39
2017-04-07T06:07:00.573Z,1013.48
2017-04-07T06:07:41.441Z,1013.45
2017-04-07T06:08:22.317Z,1013.51
2017-04-07T06:09:03.197Z,1013.37
2017-04-07T06:09:44.075Z,1013.47
2017-04-07T06:10:24.956Z,1013.4
2017-04-07T06:11:05.842Z,1013.38
2017-04-07T06:11:46.724Z,1013.41
2017-04-07T06:12:27.610Z,1013.49
2017-04-07T06:13:08.478Z,1013.47
2017-04-07T06:13:49.368Z,1013.41
2017-04-07T06:14:30.241Z,1013.43
2017-04-07T06:15:11.126Z,1013.47
2017-04-07T06:15:52.015Z,1013.52
2017-04-07T06:16:32.902Z,1013.46
2017-04-07T06:17:13.790Z,1013.52
2017-04-07T06:17:54.665Z,1013.43
2017-04-07T06:18:35.545Z,1013.47
2017-04-07T06:19:16.429Z,1013.52
2017-04-07T06:19:57.316Z,1013.5
2017-04-07T06:20:38.195Z,1013.45
2017-04-07T06:21:19.087Z,1013.48
2017-04-07T06:21:59.982Z,1013.49
2017-04-07T06:22:40.857Z,1013.45
2017-04-07T06:23:21.737Z,1013.44
2017-04-07T06:24:02.623Z,1013.43
2017-04-07T06:24:43.502Z,1013.35
2017-04-07T06:25:24.383Z,1013.39
2017-04-07T06:26:05.294Z,1013.48
2017-04-07T06:26:46.176Z,1013.49
2017-04-07T06:27:27.056Z,1013.52
2017-04-07T06:28:07.936Z,1013.48
2017-04-07T06:28:48.817Z,1013.51
2017-04-07T06:29:29.701Z,1013.41
2017-04-07T06:30:10.583Z,1013.47
2017-04-07T06:30:51.458Z,1013.53
2017-04-07T06:31:32.338Z,1013.5
2017-04-07T06:32:13.217Z,1013.43
2017-04-07T06:32:54.099Z,1013.39
2017-04-07T06:33:34.977Z,1013.48
2017-04-07T06:34:15.881Z,1013.51
2017-04-07T06:34:56.729Z,1013.49
2017-04-07T06:35:37.604Z,1013.54
2017-04-07T06:36:18.494Z,1013.53
2017-04-07T06:36:59.371Z,1013.55
2017-04-07T06:37:40.250Z,1013.52
2017-04-07T06:38:21.131Z,1013.54
2017-04-07T06:39:02.015Z,1013.51
2017-04-07T06:39:42.905Z,1013.5
2017-04-07T06:40:23.781Z,1013.53
2017-04-07T06:41:04.654Z,1013.55
2017-04-07T06:41:45.535Z,1013.54
2017-04-07T06:42:26.415Z,1013.52
2017-04-07T06:43:07.306Z,1013.48
2017-04-07T06:43:48.177Z,1013.53
2017-04-07T06:44:29.065Z,1013.59
2017-04-07T06:45:09.946Z,1013.48
2017-04-07T06:45:50.828Z,1013.51
2017-04-07T06:46:31.709Z,1013.52
2017-04-07T06:47:12.580Z,1013.48
2017-04-07T06:47:53.460Z,1013.54
2017-04-07T06:48:34.345Z,1013.54
2017-04-07T06:49:15.233Z,1013.51
2017-04-07T06:49:56.106Z,1013.54
2017-04-07T06:50:36.987Z,1013.51
2017-04-07T06:51:17.868Z,1013.53
2017-04-07T06:51:58.754Z,1013.56
2017-04-07T06:52:39.634Z,1013.51
2017-04-07T06:53:20.511Z,1013.51
2017-04-07T06:54:01.409Z,1013.48
2017-04-07T06:54:42.274Z,1013.59
2017-04-07T06:55:23.155Z,1013.5
2017-04-07T06:56:04.028Z,1013.49
2017-04-07T06:56:44.911Z,1013.43
2017-04-07T06:57:25.792Z,1013.52
2017-04-07T06:58:06.671Z,1013.52
2017-04-07T06:58:47.543Z,1013.53
2017-04-07T06:59:28.417Z,1013.47
2017-04-07T07:00:09.301Z,1013.53
2017-04-07T07:00:50.187Z,1013.48
2017-04-07T07:01:31.082Z,1013.48
2017-04-07T07:02:11.951Z,1013.53
2017-04-07T07:02:52.830Z,1013.52
2017-04-07T07:03:33.718Z,1013.46
2017-04-07T07:04:14.604Z,1013.51
2017-04-07T07:04:55.483Z,1013.49
2017-04-07T07:05:36.368Z,1013.45
2017-04-07T07:06:17.251Z,1013.52
2017-04-07T07:06:58.134Z,1013.46
2017-04-07T07:07:39.012Z,1013.37
2017-04-07T07:08:19.901Z,1013.46
2017-04-07T07:09:00.788Z,1013.44
2017-04-07T07:09:41.667Z,1013.45
2017-04-07T07:10:22.547Z,1013.41
2017-04-07T07:11:03.427Z,1013.38
2017-04-07T07:11:44.315Z,1013.45
2017-04-07T07:12:25.195Z,1013.43
2017-04-07T07:13:06.077Z,1013.41
2017-04-07T07:13:46.954Z,1013.44
2017-04-07T07:14:27.840Z,1013.39
2017-04-07T07:15:08.728Z,1013.42
2017-04-07T07:15:49.613Z,1013.43
2017-04-07T07:16:30.501Z,1013.33
2017-04-07T07:17:11.384Z,1013.43
2017-04-07T07:17:52.262Z,1013.44
2017-04-07T07:18:33.152Z,1013.39
2017-04-07T07:19:14.033Z,1013.34
2017-04-07T07:19:54.918Z,1013.42
2017-04-07T07:20:35.798Z,1013.42
2017-04-07T07:21:16.676Z,1013.37
2017-04-07T07:21:57.544Z,1013.43
2017-04-07T07:22:38.424Z,1013.38
2017-04-07T07:23:19.311Z,1013.41
2017-04-07T07:24:00.190Z,1013.43
2017-04-07T07:24:41.074Z,1013.46
2017-04-07T07:25:21.953Z,1013.42
2017-04-07T07:26:02.864Z,1013.4
2017-04-07T07:26:43.733Z,1013.43
2017-04-07T07:27:24.605Z,1013.37
2017-04-07T07:28:05.500Z,1013.41
2017-04-07T07:28:46.358Z,1013.4
2017-04-07T07:29:27.244Z,1013.39
2017-04-07T07:30:08.123Z,1013.37
2017-04-07T07:30:49.005Z,1013.36
2017-04-07T07:31:29.889Z,1013.42
2017-04-07T07:32:10.771Z,1013.38
2017-04-07T07:32:51.661Z,1013.31
2017-04-07T07:33:32.543Z,1013.36
2017-04-07T07:34:13.425Z,1013.37
2017-04-07T07:34:54.304Z,1013.43
2017-04-07T07:35:35.190Z,1013.37
2017-04-07T07:36:16.068Z,1013.41
2017-04-07T07:36:56.935Z,1013.41
2017-04-07T07:37:37.817Z,1013.46
2017-04-07T07:38:18.695Z,1013.43
2017-04-07T07:38:59.581Z,1013.43
2017-04-07T07:39:40.455Z,1013.35
2017-04-07T07:40:21.329Z,1013.38
2017-04-07T07:41:02.213Z,1013.4
2017-04-07T07:41:43.097Z,1013.4
2017-04-07T07:42:23.981Z,1013.48
2017-04-07T07:43:04.871Z,1013.4
2017-04-07T07:43:45.764Z,1013.41
2017-04-07T07:44:26.672Z,1013.34
2017-04-07T07:45:07.550Z,1013.42
2017-04-07T07:45:48.434Z,1013.34
2017-04-07T07:46:29.309Z,1013.35
2017-04-07T07:47:10.192Z,1013.38
2017-04-07T07:47:51.077Z,1013.36
2017-04-07T07:48:31.966Z,1013.39
2017-04-07T07:49:12.843Z,1013.38
2017-04-07T07:49:53.722Z,1013.38
2017-04-07T07:50:34.602Z,1013.36
2017-04-07T07:51:15.487Z,1013.42
2017-04-07T07:51:56.378Z,1013.38
2017-04-07T07:52:37.258Z,1013.43
2017-04-07T07:53:18.152Z,1013.41
2017-04-07T07:53:59.065Z,1013.34
2017-04-07T07:54:39.956Z,1013.39
2017-04-07T07:55:20.831Z,1013.36
2017-04-07T07:56:01.705Z,1013.39
2017-04-07T07:56:42.592Z,1013.36
2017-04-07T07:57:23.470Z,1013.4
2017-04-07T07:58:04.355Z,1013.41
2017-04-07T07:58:45.236Z,1013.4
2017-04-07T07:59:26.129Z,1013.38
2017-04-07T08:00:06.997Z,1013.32
2017-04-07T08:00:47.872Z,1013.4
2017-04-07T08:01:28.757Z,1013.36
2017-04-07T08:02:09.629Z,1013.34
2017-04-07T08:02:50.534Z,1013.34
2017-04-07T08:03:31.421Z,1013.32
2017-04-07T08:04:12.307Z,1013.35
2017-04-07T08:04:53.193Z,1013.39
2017-04-07T08:05:34.073Z,1013.39
2017-04-07T08:06:14.961Z,1013.34
2017-04-07T08:06:55.846Z,1013.39
2017-04-07T08:07:36.732Z,1013.4
2017-04-07T08:08:17.605Z,1013.43
2017-04-07T08:08:58.490Z,1013.41
2017-04-07T08:09:39.377Z,1013.4
2017-04-07T08:10:20.265Z,1013.42
2017-04-07T08:11:01.143Z,1013.45
2017-04-07T08:11:42.025Z,1013.44
2017-04-07T08:12:22.921Z,1013.48
2017-04-07T08:13:03.801Z,1013.52
2017-04-07T08:13:44.725Z,1013.41
2017-04-07T08:14:25.626Z,1013.48
2017-04-07T08:15:06.577Z,1013.48
2017-04-07T08:15:47.449Z,1013.49